sensor_id;sensor_type;location;lat;lon;timestamp;P1;durP1;ratioP1;P2;durP2;ratioP2
25846;SDS011;13676;50.168;8.568;2023-10-31T00:01:36;1.95;;;1.50;;
25846;SDS011;13676;50.168;8.568;2023-10-31T00:04:01;1.27;;;1.15;;
25846;SDS011;13676;50.168;8.568;2023-10-31T00:06:27;2.28;;;1.50;;
25846;SDS011;13676;50.168;8.568;2023-10-31T00:08:52;2.40;;;1.40;;
25846;SDS011;13676;50.168;8.568;2023-10-31T00:11:18;3.75;;;1.52;;
25846;SDS011;13676;50.168;8.568;2023-10-31T00:13:44;2.08;;;1.23;;
25846;SDS011;13676;50.168;8.568;2023-10-31T00:16:11;1.60;;;1.30;;
25846;SDS011;13676;50.168;8.568;2023-10-31T00:18:36;1.83;;;1.20;;
25846;SDS011;13676;50.168;8.568;2023-10-31T00:21:01;1.52;;;1.20;;
25846;SDS011;13676;50.168;8.568;2023-10-31T00:23:27;1.70;;;1.20;;
25846;SDS011;13676;50.168;8.568;2023-10-31T00:25:52;5.15;;;1.25;;
25846;SDS011;13676;50.168;8.568;2023-10-31T00:28:18;1.55;;;1.05;;
25846;SDS011;13676;50.168;8.568;2023-10-31T00:30:43;2.08;;;1.20;;
25846;SDS011;13676;50.168;8.568;2023-10-31T00:33:09;1.40;;;0.98;;
25846;SDS011;13676;50.168;8.568;2023-10-31T00:35:34;1.50;;;1.00;;
25846;SDS011;13676;50.168;8.568;2023-10-31T00:37:59;2.55;;;0.90;;
25846;SDS011;13676;50.168;8.568;2023-10-31T00:40:25;1.02;;;0.80;;
25846;SDS011;13676;50.168;8.568;2023-10-31T00:42:51;0.88;;;0.82;;
25846;SDS011;13676;50.168;8.568;2023-10-31T00:45:17;1.77;;;0.85;;
25846;SDS011;13676;50.168;8.568;2023-10-31T00:47:42;3.50;;;0.80;;
25846;SDS011;13676;50.168;8.568;2023-10-31T00:50:08;2.03;;;0.70;;
25846;SDS011;13676;50.168;8.568;2023-10-31T00:52:34;0.95;;;0.63;;
25846;SDS011;13676;50.168;8.568;2023-10-31T00:54:59;2.53;;;0.85;;
25846;SDS011;13676;50.168;8.568;2023-10-31T00:57:25;0.82;;;0.60;;
25846;SDS011;13676;50.168;8.568;2023-10-31T00:59:50;3.70;;;0.70;;
25846;SDS011;13676;50.168;8.568;2023-10-31T01:02:15;3.00;;;0.75;;
25846;SDS011;13676;50.168;8.568;2023-10-31T01:04:40;1.25;;;0.60;;
25846;SDS011;13676;50.168;8.568;2023-10-31T01:07:06;2.03;;;0.80;;
25846;SDS011;13676;50.168;8.568;2023-10-31T01:09:32;0.70;;;0.70;;
25846;SDS011;13676;50.168;8.568;2023-10-31T01:11:58;1.08;;;0.60;;
25846;SDS011;13676;50.168;8.568;2023-10-31T01:14:23;3.22;;;0.88;;
25846;SDS011;13676;50.168;8.568;2023-10-31T01:16:49;0.70;;;0.70;;
25846;SDS011;13676;50.168;8.568;2023-10-31T01:19:14;0.85;;;0.60;;
25846;SDS011;13676;50.168;8.568;2023-10-31T01:21:39;1.25;;;0.88;;
25846;SDS011;13676;50.168;8.568;2023-10-31T01:24:05;1.10;;;0.70;;
25846;SDS011;13676;50.168;8.568;2023-10-31T01:26:30;0.60;;;0.60;;
25846;SDS011;13676;50.168;8.568;2023-10-31T01:28:55;3.03;;;0.70;;
25846;SDS011;13676;50.168;8.568;2023-10-31T01:31:21;1.15;;;0.60;;
25846;SDS011;13676;50.168;8.568;2023-10-31T01:33:47;0.80;;;0.60;;
25846;SDS011;13676;50.168;8.568;2023-10-31T01:36:13;0.90;;;0.70;;
25846;SDS011;13676;50.168;8.568;2023-10-31T01:38:39;2.92;;;0.57;;
25846;SDS011;13676;50.168;8.568;2023-10-31T01:41:04;1.50;;;0.70;;
25846;SDS011;13676;50.168;8.568;2023-10-31T01:43:35;2.00;;;0.80;;
25846;SDS011;13676;50.168;8.568;2023-10-31T01:46:02;1.88;;;0.85;;
25846;SDS011;13676;50.168;8.568;2023-10-31T01:48:28;1.83;;;0.68;;
25846;SDS011;13676;50.168;8.568;2023-10-31T01:50:55;1.77;;;0.90;;
25846;SDS011;13676;50.168;8.568;2023-10-31T01:53:21;3.40;;;0.60;;
25846;SDS011;13676;50.168;8.568;2023-10-31T01:55:49;1.52;;;0.80;;
25846;SDS011;13676;50.168;8.568;2023-10-31T01:58:14;0.60;;;0.60;;
25846;SDS011;13676;50.168;8.568;2023-10-31T02:00:41;2.55;;;0.70;;
25846;SDS011;13676;50.168;8.568;2023-10-31T02:03:07;0.80;;;0.70;;
25846;SDS011;13676;50.168;8.568;2023-10-31T02:05:33;2.83;;;0.70;;
25846;SDS011;13676;50.168;8.568;2023-10-31T02:08:01;1.00;;;0.70;;
25846;SDS011;13676;50.168;8.568;2023-10-31T02:10:26;0.98;;;0.60;;
25846;SDS011;13676;50.168;8.568;2023-10-31T02:12:52;1.27;;;0.70;;
25846;SDS011;13676;50.168;8.568;2023-10-31T02:15:18;0.60;;;0.60;;
25846;SDS011;13676;50.168;8.568;2023-10-31T02:17:44;1.20;;;0.82;;
25846;SDS011;13676;50.168;8.568;2023-10-31T02:20:10;1.00;;;0.80;;
25846;SDS011;13676;50.168;8.568;2023-10-31T02:22:35;1.95;;;0.80;;
25846;SDS011;13676;50.168;8.568;2023-10-31T02:25:01;0.60;;;0.60;;
25846;SDS011;13676;50.168;8.568;2023-10-31T02:27:27;1.13;;;0.70;;
25846;SDS011;13676;50.168;8.568;2023-10-31T02:29:52;2.80;;;0.50;;
25846;SDS011;13676;50.168;8.568;2023-10-31T02:32:17;0.75;;;0.73;;
25846;SDS011;13676;50.168;8.568;2023-10-31T02:34:44;4.07;;;0.70;;
25846;SDS011;13676;50.168;8.568;2023-10-31T02:37:10;2.92;;;0.70;;
25846;SDS011;13676;50.168;8.568;2023-10-31T02:39:37;2.20;;;0.70;;
25846;SDS011;13676;50.168;8.568;2023-10-31T02:42:02;0.60;;;0.50;;
25846;SDS011;13676;50.168;8.568;2023-10-31T02:44:28;0.85;;;0.40;;
25846;SDS011;13676;50.168;8.568;2023-10-31T02:46:54;0.85;;;0.57;;
25846;SDS011;13676;50.168;8.568;2023-10-31T02:49:19;0.65;;;0.40;;
25846;SDS011;13676;50.168;8.568;2023-10-31T02:51:45;0.40;;;0.40;;
25846;SDS011;13676;50.168;8.568;2023-10-31T02:54:10;0.88;;;0.50;;
25846;SDS011;13676;50.168;8.568;2023-10-31T02:56:35;1.25;;;0.60;;
25846;SDS011;13676;50.168;8.568;2023-10-31T02:59:01;3.15;;;0.60;;
25846;SDS011;13676;50.168;8.568;2023-10-31T03:01:29;1.75;;;0.50;;
25846;SDS011;13676;50.168;8.568;2023-10-31T03:03:55;0.55;;;0.50;;
25846;SDS011;13676;50.168;8.568;2023-10-31T03:06:21;1.05;;;0.50;;
25846;SDS011;13676;50.168;8.568;2023-10-31T03:08:47;0.43;;;0.43;;
25846;SDS011;13676;50.168;8.568;2023-10-31T03:11:23;0.90;;;0.40;;
25846;SDS011;13676;50.168;8.568;2023-10-31T03:13:49;1.05;;;0.50;;
25846;SDS011;13676;50.168;8.568;2023-10-31T03:16:16;1.00;;;0.90;;
25846;SDS011;13676;50.168;8.568;2023-10-31T03:18:42;1.95;;;0.60;;
25846;SDS011;13676;50.168;8.568;2023-10-31T03:21:07;7.18;;;0.85;;
25846;SDS011;13676;50.168;8.568;2023-10-31T03:23:33;2.60;;;0.93;;
25846;SDS011;13676;50.168;8.568;2023-10-31T03:25:58;2.90;;;0.90;;
25846;SDS011;13676;50.168;8.568;2023-10-31T03:28:23;1.30;;;1.10;;
25846;SDS011;13676;50.168;8.568;2023-10-31T03:30:49;2.83;;;1.00;;
25846;SDS011;13676;50.168;8.568;2023-10-31T03:33:16;0.73;;;0.60;;
25846;SDS011;13676;50.168;8.568;2023-10-31T03:35:41;1.17;;;0.73;;
25846;SDS011;13676;50.168;8.568;2023-10-31T03:38:07;4.03;;;0.93;;
25846;SDS011;13676;50.168;8.568;2023-10-31T03:40:33;1.83;;;0.80;;
25846;SDS011;13676;50.168;8.568;2023-10-31T03:42:58;1.48;;;0.77;;
25846;SDS011;13676;50.168;8.568;2023-10-31T03:45:24;2.15;;;0.80;;
25846;SDS011;13676;50.168;8.568;2023-10-31T03:47:49;1.63;;;0.63;;
25846;SDS011;13676;50.168;8.568;2023-10-31T03:50:14;4.03;;;0.85;;
25846;SDS011;13676;50.168;8.568;2023-10-31T03:52:39;1.35;;;0.60;;
25846;SDS011;13676;50.168;8.568;2023-10-31T03:55:05;1.27;;;0.70;;
25846;SDS011;13676;50.168;8.568;2023-10-31T03:57:31;0.75;;;0.65;;
25846;SDS011;13676;50.168;8.568;2023-10-31T03:59:56;0.77;;;0.63;;
25846;SDS011;13676;50.168;8.568;2023-10-31T04:02:22;0.55;;;0.55;;
25846;SDS011;13676;50.168;8.568;2023-10-31T04:04:48;1.92;;;0.77;;
25846;SDS011;13676;50.168;8.568;2023-10-31T04:07:13;2.00;;;0.77;;
25846;SDS011;13676;50.168;8.568;2023-10-31T04:09:39;1.77;;;0.80;;
25846;SDS011;13676;50.168;8.568;2023-10-31T04:12:04;3.28;;;1.00;;
25846;SDS011;13676;50.168;8.568;2023-10-31T04:14:31;1.33;;;0.80;;
25846;SDS011;13676;50.168;8.568;2023-10-31T04:16:57;5.63;;;0.60;;
25846;SDS011;13676;50.168;8.568;2023-10-31T04:19:22;1.17;;;0.60;;
25846;SDS011;13676;50.168;8.568;2023-10-31T04:21:47;0.70;;;0.70;;
25846;SDS011;13676;50.168;8.568;2023-10-31T04:24:13;1.92;;;0.65;;
25846;SDS011;13676;50.168;8.568;2023-10-31T04:26:40;1.58;;;1.00;;
25846;SDS011;13676;50.168;8.568;2023-10-31T04:29:06;0.70;;;0.70;;
25846;SDS011;13676;50.168;8.568;2023-10-31T04:31:32;2.03;;;0.80;;
25846;SDS011;13676;50.168;8.568;2023-10-31T04:33:57;1.00;;;0.90;;
25846;SDS011;13676;50.168;8.568;2023-10-31T04:36:22;0.70;;;0.70;;
25846;SDS011;13676;50.168;8.568;2023-10-31T04:38:48;0.70;;;0.70;;
25846;SDS011;13676;50.168;8.568;2023-10-31T04:41:14;2.78;;;0.90;;
25846;SDS011;13676;50.168;8.568;2023-10-31T04:43:39;1.10;;;0.75;;
25846;SDS011;13676;50.168;8.568;2023-10-31T04:46:06;1.33;;;0.70;;
25846;SDS011;13676;50.168;8.568;2023-10-31T04:48:32;3.78;;;0.90;;
25846;SDS011;13676;50.168;8.568;2023-10-31T04:50:57;0.80;;;0.80;;
25846;SDS011;13676;50.168;8.568;2023-10-31T04:53:23;0.95;;;0.63;;
25846;SDS011;13676;50.168;8.568;2023-10-31T04:55:48;0.77;;;0.70;;
25846;SDS011;13676;50.168;8.568;2023-10-31T04:58:14;1.15;;;0.60;;
25846;SDS011;13676;50.168;8.568;2023-10-31T05:00:39;2.42;;;1.08;;
25846;SDS011;13676;50.168;8.568;2023-10-31T05:03:05;0.60;;;0.60;;
25846;SDS011;13676;50.168;8.568;2023-10-31T05:05:30;1.27;;;0.60;;
25846;SDS011;13676;50.168;8.568;2023-10-31T05:07:56;1.42;;;0.60;;
25846;SDS011;13676;50.168;8.568;2023-10-31T05:10:21;5.30;;;0.90;;
25846;SDS011;13676;50.168;8.568;2023-10-31T05:12:46;1.17;;;0.50;;
25846;SDS011;13676;50.168;8.568;2023-10-31T05:15:12;1.27;;;0.60;;
25846;SDS011;13676;50.168;8.568;2023-10-31T05:17:37;1.17;;;0.73;;
25846;SDS011;13676;50.168;8.568;2023-10-31T05:20:02;1.33;;;0.90;;
25846;SDS011;13676;50.168;8.568;2023-10-31T05:22:28;0.73;;;0.60;;
25846;SDS011;13676;50.168;8.568;2023-10-31T05:24:55;0.77;;;0.50;;
25846;SDS011;13676;50.168;8.568;2023-10-31T05:27:20;1.00;;;0.63;;
25846;SDS011;13676;50.168;8.568;2023-10-31T05:29:45;0.95;;;0.70;;
25846;SDS011;13676;50.168;8.568;2023-10-31T05:32:12;2.05;;;0.63;;
25846;SDS011;13676;50.168;8.568;2023-10-31T05:37:04;2.25;;;1.15;;
25846;SDS011;13676;50.168;8.568;2023-10-31T05:39:31;1.53;;;0.80;;
25846;SDS011;13676;50.168;8.568;2023-10-31T05:41:58;0.70;;;0.60;;
25846;SDS011;13676;50.168;8.568;2023-10-31T05:44:25;1.13;;;0.50;;
25846;SDS011;13676;50.168;8.568;2023-10-31T05:46:50;1.63;;;0.70;;
25846;SDS011;13676;50.168;8.568;2023-10-31T05:49:15;1.42;;;0.60;;
25846;SDS011;13676;50.168;8.568;2023-10-31T05:51:42;0.70;;;0.60;;
25846;SDS011;13676;50.168;8.568;2023-10-31T05:54:08;1.23;;;0.70;;
25846;SDS011;13676;50.168;8.568;2023-10-31T05:56:34;1.55;;;0.90;;
25846;SDS011;13676;50.168;8.568;2023-10-31T05:58:59;1.38;;;0.70;;
25846;SDS011;13676;50.168;8.568;2023-10-31T06:01:24;1.33;;;0.70;;
25846;SDS011;13676;50.168;8.568;2023-10-31T06:03:50;0.52;;;0.40;;
25846;SDS011;13676;50.168;8.568;2023-10-31T06:06:15;0.98;;;0.88;;
25846;SDS011;13676;50.168;8.568;2023-10-31T06:08:41;0.75;;;0.65;;
25846;SDS011;13676;50.168;8.568;2023-10-31T06:11:06;0.60;;;0.60;;
25846;SDS011;13676;50.168;8.568;2023-10-31T06:13:33;1.30;;;0.80;;
25846;SDS011;13676;50.168;8.568;2023-10-31T06:16:00;2.78;;;0.70;;
25846;SDS011;13676;50.168;8.568;2023-10-31T06:18:25;0.60;;;0.60;;
25846;SDS011;13676;50.168;8.568;2023-10-31T06:20:51;1.30;;;0.80;;
25846;SDS011;13676;50.168;8.568;2023-10-31T06:23:20;1.98;;;1.08;;
25846;SDS011;13676;50.168;8.568;2023-10-31T06:25:45;1.25;;;0.82;;
25846;SDS011;13676;50.168;8.568;2023-10-31T06:28:11;4.03;;;0.70;;
25846;SDS011;13676;50.168;8.568;2023-10-31T06:30:38;1.58;;;0.98;;
25846;SDS011;13676;50.168;8.568;2023-10-31T06:33:05;0.90;;;0.70;;
25846;SDS011;13676;50.168;8.568;2023-10-31T06:35:32;2.25;;;0.95;;
25846;SDS011;13676;50.168;8.568;2023-10-31T06:37:57;2.03;;;0.95;;
25846;SDS011;13676;50.168;8.568;2023-10-31T06:40:24;1.05;;;0.90;;
25846;SDS011;13676;50.168;8.568;2023-10-31T06:42:49;1.88;;;0.80;;
25846;SDS011;13676;50.168;8.568;2023-10-31T06:45:15;2.83;;;1.13;;
25846;SDS011;13676;50.168;8.568;2023-10-31T06:47:41;1.98;;;1.00;;
25846;SDS011;13676;50.168;8.568;2023-10-31T06:50:07;0.98;;;0.80;;
25846;SDS011;13676;50.168;8.568;2023-10-31T06:52:33;1.20;;;0.80;;
25846;SDS011;13676;50.168;8.568;2023-10-31T06:54:59;0.98;;;0.80;;
25846;SDS011;13676;50.168;8.568;2023-10-31T06:57:25;3.22;;;0.88;;
25846;SDS011;13676;50.168;8.568;2023-10-31T06:59:52;2.30;;;0.90;;
25846;SDS011;13676;50.168;8.568;2023-10-31T07:02:18;3.35;;;1.00;;
25846;SDS011;13676;50.168;8.568;2023-10-31T07:04:43;1.38;;;0.82;;
25846;SDS011;13676;50.168;8.568;2023-10-31T07:07:10;1.08;;;0.80;;
25846;SDS011;13676;50.168;8.568;2023-10-31T07:09:35;1.08;;;0.50;;
25846;SDS011;13676;50.168;8.568;2023-10-31T07:12:02;3.65;;;1.00;;
25846;SDS011;13676;50.168;8.568;2023-10-31T07:14:28;1.33;;;0.90;;
25846;SDS011;13676;50.168;8.568;2023-10-31T07:16:55;1.35;;;0.80;;
25846;SDS011;13676;50.168;8.568;2023-10-31T07:19:23;1.08;;;0.80;;
25846;SDS011;13676;50.168;8.568;2023-10-31T07:21:48;1.10;;;0.90;;
25846;SDS011;13676;50.168;8.568;2023-10-31T07:24:14;1.30;;;0.90;;
25846;SDS011;13676;50.168;8.568;2023-10-31T07:26:39;4.00;;;0.95;;
25846;SDS011;13676;50.168;8.568;2023-10-31T07:29:05;2.05;;;0.98;;
25846;SDS011;13676;50.168;8.568;2023-10-31T07:31:30;3.00;;;0.60;;
25846;SDS011;13676;50.168;8.568;2023-10-31T07:33:56;1.45;;;0.93;;
25846;SDS011;13676;50.168;8.568;2023-10-31T07:36:21;3.72;;;0.80;;
25846;SDS011;13676;50.168;8.568;2023-10-31T07:38:47;2.20;;;0.90;;
25846;SDS011;13676;50.168;8.568;2023-10-31T07:41:14;4.53;;;0.90;;
25846;SDS011;13676;50.168;8.568;2023-10-31T07:43:39;3.17;;;0.93;;
25846;SDS011;13676;50.168;8.568;2023-10-31T07:46:05;2.22;;;0.90;;
25846;SDS011;13676;50.168;8.568;2023-10-31T07:48:31;3.25;;;1.20;;
25846;SDS011;13676;50.168;8.568;2023-10-31T07:50:57;2.50;;;1.10;;
25846;SDS011;13676;50.168;8.568;2023-10-31T07:53:23;1.33;;;0.98;;
25846;SDS011;13676;50.168;8.568;2023-10-31T07:55:48;4.50;;;1.50;;
25846;SDS011;13676;50.168;8.568;2023-10-31T07:58:16;1.08;;;0.90;;
25846;SDS011;13676;50.168;8.568;2023-10-31T08:00:41;1.65;;;0.88;;
25846;SDS011;13676;50.168;8.568;2023-10-31T08:03:07;1.73;;;0.90;;
25846;SDS011;13676;50.168;8.568;2023-10-31T08:05:33;2.05;;;0.90;;
25846;SDS011;13676;50.168;8.568;2023-10-31T08:07:58;1.17;;;0.85;;
25846;SDS011;13676;50.168;8.568;2023-10-31T08:10:23;2.53;;;1.17;;
25846;SDS011;13676;50.168;8.568;2023-10-31T08:12:49;1.52;;;0.88;;
25846;SDS011;13676;50.168;8.568;2023-10-31T08:15:14;3.20;;;1.00;;
25846;SDS011;13676;50.168;8.568;2023-10-31T08:17:42;2.50;;;1.15;;
25846;SDS011;13676;50.168;8.568;2023-10-31T08:20:07;2.50;;;1.17;;
25846;SDS011;13676;50.168;8.568;2023-10-31T08:22:37;2.42;;;0.88;;
25846;SDS011;13676;50.168;8.568;2023-10-31T08:25:04;2.47;;;0.90;;
25846;SDS011;13676;50.168;8.568;2023-10-31T08:27:29;1.55;;;0.60;;
25846;SDS011;13676;50.168;8.568;2023-10-31T08:29:55;1.73;;;0.73;;
25846;SDS011;13676;50.168;8.568;2023-10-31T08:32:21;4.15;;;0.80;;
25846;SDS011;13676;50.168;8.568;2023-10-31T08:34:49;1.35;;;0.85;;
25846;SDS011;13676;50.168;8.568;2023-10-31T08:37:15;2.60;;;0.80;;
25846;SDS011;13676;50.168;8.568;2023-10-31T08:39:40;2.70;;;1.08;;
25846;SDS011;13676;50.168;8.568;2023-10-31T08:42:06;2.65;;;0.90;;
25846;SDS011;13676;50.168;8.568;2023-10-31T08:44:31;1.77;;;1.00;;
25846;SDS011;13676;50.168;8.568;2023-10-31T08:46:59;3.90;;;0.95;;
25846;SDS011;13676;50.168;8.568;2023-10-31T08:49:24;1.42;;;0.90;;
25846;SDS011;13676;50.168;8.568;2023-10-31T08:51:51;0.80;;;0.80;;
25846;SDS011;13676;50.168;8.568;2023-10-31T08:54:16;3.92;;;1.13;;
25846;SDS011;13676;50.168;8.568;2023-10-31T08:56:41;4.03;;;1.05;;
25846;SDS011;13676;50.168;8.568;2023-10-31T08:59:07;1.80;;;0.80;;
25846;SDS011;13676;50.168;8.568;2023-10-31T09:01:32;1.95;;;1.00;;
25846;SDS011;13676;50.168;8.568;2023-10-31T09:03:58;6.10;;;1.15;;
25846;SDS011;13676;50.168;8.568;2023-10-31T09:06:24;1.40;;;1.00;;
25846;SDS011;13676;50.168;8.568;2023-10-31T09:08:50;2.10;;;1.45;;
25846;SDS011;13676;50.168;8.568;2023-10-31T09:11:15;3.40;;;0.90;;
25846;SDS011;13676;50.168;8.568;2023-10-31T09:13:41;2.72;;;1.23;;
25846;SDS011;13676;50.168;8.568;2023-10-31T09:16:06;2.85;;;1.30;;
25846;SDS011;13676;50.168;8.568;2023-10-31T09:18:32;2.70;;;1.30;;
25846;SDS011;13676;50.168;8.568;2023-10-31T09:20:58;3.78;;;1.30;;
25846;SDS011;13676;50.168;8.568;2023-10-31T09:23:26;1.73;;;1.15;;
25846;SDS011;13676;50.168;8.568;2023-10-31T09:25:54;1.67;;;1.00;;
25846;SDS011;13676;50.168;8.568;2023-10-31T09:28:20;4.78;;;1.23;;
25846;SDS011;13676;50.168;8.568;2023-10-31T09:30:45;3.58;;;1.20;;
25846;SDS011;13676;50.168;8.568;2023-10-31T09:33:11;2.15;;;1.25;;
25846;SDS011;13676;50.168;8.568;2023-10-31T09:35:37;2.20;;;0.90;;
25846;SDS011;13676;50.168;8.568;2023-10-31T09:38:03;5.43;;;1.02;;
25846;SDS011;13676;50.168;8.568;2023-10-31T09:40:28;1.63;;;1.00;;
25846;SDS011;13676;50.168;8.568;2023-10-31T09:42:53;1.95;;;1.17;;
25846;SDS011;13676;50.168;8.568;2023-10-31T09:45:19;1.90;;;0.98;;
25846;SDS011;13676;50.168;8.568;2023-10-31T09:47:44;1.50;;;1.15;;
25846;SDS011;13676;50.168;8.568;2023-10-31T09:50:10;2.10;;;1.08;;
25846;SDS011;13676;50.168;8.568;2023-10-31T09:52:37;1.83;;;0.75;;
25846;SDS011;13676;50.168;8.568;2023-10-31T09:55:03;2.63;;;1.10;;
25846;SDS011;13676;50.168;8.568;2023-10-31T09:57:32;2.65;;;1.27;;
25846;SDS011;13676;50.168;8.568;2023-10-31T09:59:57;4.30;;;1.30;;
25846;SDS011;13676;50.168;8.568;2023-10-31T10:02:23;2.92;;;1.25;;
25846;SDS011;13676;50.168;8.568;2023-10-31T10:04:49;1.63;;;0.88;;
25846;SDS011;13676;50.168;8.568;2023-10-31T10:07:15;3.63;;;1.20;;
25846;SDS011;13676;50.168;8.568;2023-10-31T10:09:42;3.22;;;1.05;;
25846;SDS011;13676;50.168;8.568;2023-10-31T10:12:14;2.00;;;1.08;;
25846;SDS011;13676;50.168;8.568;2023-10-31T10:14:40;1.52;;;0.90;;
25846;SDS011;13676;50.168;8.568;2023-10-31T10:17:16;1.52;;;0.93;;
25846;SDS011;13676;50.168;8.568;2023-10-31T10:19:42;1.67;;;1.00;;
25846;SDS011;13676;50.168;8.568;2023-10-31T10:22:08;3.45;;;1.58;;
25846;SDS011;13676;50.168;8.568;2023-10-31T10:24:33;2.97;;;1.20;;
25846;SDS011;13676;50.168;8.568;2023-10-31T10:26:59;3.85;;;1.00;;
25846;SDS011;13676;50.168;8.568;2023-10-31T10:29:25;4.15;;;0.98;;
25846;SDS011;13676;50.168;8.568;2023-10-31T10:31:51;3.20;;;0.95;;
25846;SDS011;13676;50.168;8.568;2023-10-31T10:34:17;2.42;;;0.95;;
25846;SDS011;13676;50.168;8.568;2023-10-31T10:36:46;3.20;;;1.50;;
25846;SDS011;13676;50.168;8.568;2023-10-31T10:39:22;1.67;;;0.80;;
25846;SDS011;13676;50.168;8.568;2023-10-31T10:41:52;2.00;;;1.10;;
25846;SDS011;13676;50.168;8.568;2023-10-31T10:44:25;3.85;;;1.15;;
25846;SDS011;13676;50.168;8.568;2023-10-31T10:47:03;1.05;;;0.80;;
25846;SDS011;13676;50.168;8.568;2023-10-31T10:49:32;1.50;;;0.70;;
25846;SDS011;13676;50.168;8.568;2023-10-31T10:57:36;0.95;;;0.68;;
25846;SDS011;13676;50.168;8.568;2023-10-31T11:00:03;2.10;;;0.80;;
25846;SDS011;13676;50.168;8.568;2023-10-31T11:02:30;1.48;;;0.80;;
25846;SDS011;13676;50.168;8.568;2023-10-31T11:04:56;3.60;;;0.73;;
25846;SDS011;13676;50.168;8.568;2023-10-31T11:07:22;1.58;;;0.73;;
25846;SDS011;13676;50.168;8.568;2023-10-31T11:09:51;1.38;;;0.80;;
25846;SDS011;13676;50.168;8.568;2023-10-31T11:12:20;2.47;;;1.30;;
25846;SDS011;13676;50.168;8.568;2023-10-31T11:14:47;2.65;;;0.60;;
25846;SDS011;13676;50.168;8.568;2023-10-31T11:17:35;0.70;;;0.60;;
25846;SDS011;13676;50.168;8.568;2023-10-31T11:20:02;1.17;;;0.65;;
25846;SDS011;13676;50.168;8.568;2023-10-31T11:22:38;2.78;;;0.77;;
25846;SDS011;13676;50.168;8.568;2023-10-31T11:25:05;1.48;;;0.85;;
25846;SDS011;13676;50.168;8.568;2023-10-31T11:27:33;1.77;;;0.80;;
25846;SDS011;13676;50.168;8.568;2023-10-31T11:30:01;1.58;;;0.70;;
25846;SDS011;13676;50.168;8.568;2023-10-31T11:32:31;1.42;;;0.50;;
25846;SDS011;13676;50.168;8.568;2023-10-31T11:34:57;1.48;;;0.57;;
25846;SDS011;13676;50.168;8.568;2023-10-31T11:37:32;1.20;;;0.70;;
25846;SDS011;13676;50.168;8.568;2023-10-31T11:42:38;1.23;;;0.90;;
25846;SDS011;13676;50.168;8.568;2023-10-31T11:45:03;2.05;;;0.68;;
25846;SDS011;13676;50.168;8.568;2023-10-31T11:47:46;3.08;;;0.50;;
25846;SDS011;13676;50.168;8.568;2023-10-31T11:50:15;4.28;;;0.73;;
25846;SDS011;13676;50.168;8.568;2023-10-31T11:52:41;2.10;;;0.70;;
25846;SDS011;13676;50.168;8.568;2023-10-31T11:55:11;1.38;;;0.68;;
25846;SDS011;13676;50.168;8.568;2023-10-31T11:57:37;1.92;;;0.77;;
25846;SDS011;13676;50.168;8.568;2023-10-31T12:00:03;1.35;;;0.70;;
25846;SDS011;13676;50.168;8.568;2023-10-31T12:02:30;2.97;;;0.60;;
25846;SDS011;13676;50.168;8.568;2023-10-31T12:05:08;1.75;;;0.57;;
25846;SDS011;13676;50.168;8.568;2023-10-31T12:07:43;2.08;;;0.77;;
25846;SDS011;13676;50.168;8.568;2023-10-31T12:10:09;1.38;;;0.65;;
25846;SDS011;13676;50.168;8.568;2023-10-31T12:12:35;4.00;;;0.98;;
25846;SDS011;13676;50.168;8.568;2023-10-31T12:15:04;5.75;;;0.88;;
25846;SDS011;13676;50.168;8.568;2023-10-31T12:17:36;2.13;;;0.65;;
25846;SDS011;13676;50.168;8.568;2023-10-31T12:20:05;1.45;;;0.80;;
25846;SDS011;13676;50.168;8.568;2023-10-31T12:22:33;2.33;;;1.02;;
25846;SDS011;13676;50.168;8.568;2023-10-31T12:30:09;2.65;;;1.08;;
25846;SDS011;13676;50.168;8.568;2023-10-31T12:32:36;5.03;;;0.80;;
25846;SDS011;13676;50.168;8.568;2023-10-31T12:35:01;4.15;;;3.08;;
25846;SDS011;13676;50.168;8.568;2023-10-31T12:37:27;3.33;;;2.88;;
25846;SDS011;13676;50.168;8.568;2023-10-31T12:39:53;4.55;;;2.30;;
25846;SDS011;13676;50.168;8.568;2023-10-31T12:42:19;2.17;;;1.35;;
25846;SDS011;13676;50.168;8.568;2023-10-31T12:44:45;2.75;;;1.10;;
25846;SDS011;13676;50.168;8.568;2023-10-31T12:47:20;3.42;;;0.93;;
25846;SDS011;13676;50.168;8.568;2023-10-31T12:49:46;2.35;;;1.33;;
25846;SDS011;13676;50.168;8.568;2023-10-31T12:52:12;1.95;;;0.90;;
25846;SDS011;13676;50.168;8.568;2023-10-31T12:54:37;2.03;;;0.80;;
25846;SDS011;13676;50.168;8.568;2023-10-31T12:57:04;1.48;;;0.80;;
25846;SDS011;13676;50.168;8.568;2023-10-31T12:59:30;1.73;;;0.90;;
25846;SDS011;13676;50.168;8.568;2023-10-31T13:01:58;2.45;;;0.70;;
25846;SDS011;13676;50.168;8.568;2023-10-31T13:04:28;2.50;;;0.70;;
25846;SDS011;13676;50.168;8.568;2023-10-31T13:06:55;1.98;;;0.80;;
25846;SDS011;13676;50.168;8.568;2023-10-31T13:09:31;3.63;;;0.93;;
25846;SDS011;13676;50.168;8.568;2023-10-31T13:11:57;2.30;;;1.08;;
25846;SDS011;13676;50.168;8.568;2023-10-31T13:14:26;5.07;;;0.88;;
25846;SDS011;13676;50.168;8.568;2023-10-31T13:16:52;2.15;;;0.90;;
25846;SDS011;13676;50.168;8.568;2023-10-31T13:19:18;2.60;;;0.70;;
25846;SDS011;13676;50.168;8.568;2023-10-31T13:21:43;2.15;;;0.80;;
25846;SDS011;13676;50.168;8.568;2023-10-31T13:24:09;1.88;;;0.82;;
25846;SDS011;13676;50.168;8.568;2023-10-31T13:26:34;2.05;;;0.80;;
25846;SDS011;13676;50.168;8.568;2023-10-31T13:29:00;1.58;;;0.80;;
25846;SDS011;13676;50.168;8.568;2023-10-31T13:31:25;2.67;;;0.98;;
25846;SDS011;13676;50.168;8.568;2023-10-31T13:33:51;3.55;;;0.90;;
25846;SDS011;13676;50.168;8.568;2023-10-31T13:36:16;1.65;;;0.82;;
25846;SDS011;13676;50.168;8.568;2023-10-31T13:38:42;2.72;;;0.90;;
25846;SDS011;13676;50.168;8.568;2023-10-31T13:41:07;2.72;;;0.90;;
25846;SDS011;13676;50.168;8.568;2023-10-31T13:43:33;4.18;;;1.00;;
25846;SDS011;13676;50.168;8.568;2023-10-31T13:45:58;2.85;;;0.85;;
25846;SDS011;13676;50.168;8.568;2023-10-31T13:48:24;2.60;;;1.00;;
25846;SDS011;13676;50.168;8.568;2023-10-31T13:50:49;1.45;;;0.85;;
25846;SDS011;13676;50.168;8.568;2023-10-31T13:53:15;1.38;;;0.70;;
25846;SDS011;13676;50.168;8.568;2023-10-31T13:55:40;2.15;;;0.77;;
25846;SDS011;13676;50.168;8.568;2023-10-31T13:58:06;2.17;;;0.77;;
25846;SDS011;13676;50.168;8.568;2023-10-31T14:00:32;2.10;;;1.00;;
25846;SDS011;13676;50.168;8.568;2023-10-31T14:02:57;1.30;;;0.80;;
25846;SDS011;13676;50.168;8.568;2023-10-31T14:05:24;4.07;;;1.10;;
25846;SDS011;13676;50.168;8.568;2023-10-31T14:07:50;2.58;;;0.90;;
25846;SDS011;13676;50.168;8.568;2023-10-31T14:10:16;2.03;;;1.25;;
25846;SDS011;13676;50.168;8.568;2023-10-31T14:12:45;3.03;;;2.13;;
25846;SDS011;13676;50.168;8.568;2023-10-31T14:15:13;2.15;;;1.08;;
25846;SDS011;13676;50.168;8.568;2023-10-31T14:17:38;1.73;;;1.05;;
25846;SDS011;13676;50.168;8.568;2023-10-31T14:20:04;2.33;;;1.00;;
25846;SDS011;13676;50.168;8.568;2023-10-31T14:22:29;2.35;;;0.93;;
25846;SDS011;13676;50.168;8.568;2023-10-31T14:24:55;3.92;;;1.00;;
25846;SDS011;13676;50.168;8.568;2023-10-31T14:27:20;2.25;;;0.88;;
25846;SDS011;13676;50.168;8.568;2023-10-31T14:29:46;3.45;;;0.98;;
25846;SDS011;13676;50.168;8.568;2023-10-31T14:32:12;5.28;;;1.00;;
25846;SDS011;13676;50.168;8.568;2023-10-31T14:34:38;1.20;;;0.70;;
25846;SDS011;13676;50.168;8.568;2023-10-31T14:37:03;3.80;;;1.20;;
25846;SDS011;13676;50.168;8.568;2023-10-31T14:39:30;3.50;;;0.93;;
25846;SDS011;13676;50.168;8.568;2023-10-31T14:41:56;2.33;;;0.80;;
25846;SDS011;13676;50.168;8.568;2023-10-31T14:44:22;5.55;;;0.93;;
25846;SDS011;13676;50.168;8.568;2023-10-31T14:46:47;0.90;;;0.60;;
25846;SDS011;13676;50.168;8.568;2023-10-31T14:49:12;2.50;;;0.70;;
25846;SDS011;13676;50.168;8.568;2023-10-31T14:51:38;2.13;;;0.88;;
25846;SDS011;13676;50.168;8.568;2023-10-31T14:54:04;2.00;;;0.82;;
25846;SDS011;13676;50.168;8.568;2023-10-31T14:56:29;2.42;;;0.82;;
25846;SDS011;13676;50.168;8.568;2023-10-31T14:58:55;3.08;;;1.15;;